Time;durP1;ratioP1;P1;durP2;ratioP2;P2;SDS_P1;SDS_P2;PMS_P1;PMS_P2;Temp;Humidity;BMP_temperature;BMP_pressure;BME280_temperature;BME280_humidity;BME280_pressure;Samples;Min_cycle;Max_cycle;Signal;HPM_P1;HPM_P2
2022/06/19 00:01:02;;;;;;;21.13;2.65;;;14.00;99.90;;;;;;5075906;28;20080;-76
2022/06/19 00:03:41;;;;;;;30.52;2.90;;;14.00;99.90;;;;;;5076443;28;20056;-77
2022/06/19 00:06:08;;;;;;;29.95;3.17;;;14.00;99.90;;;;;;5076335;28;20087;-76
2022/06/19 00:08:33;;;;;;;23.45;3.25;;;14.10;99.90;;;;;;5075538;28;20540;-75
2022/06/19 00:11:00;;;;;;;22.52;2.92;;;14.00;99.90;;;;;;5074441;28;20080;-74
2022/06/19 00:13:26;;;;;;;24.10;2.78;;;14.10;99.90;;;;;;5075787;28;20066;-77
2022/06/19 00:15:52;;;;;;;36.25;2.85;;;14.00;99.90;;;;;;5075732;28;20127;-74
2022/06/19 00:18:18;;;;;;;26.15;2.72;;;14.00;99.90;;;;;;5075628;28;20478;-74
2022/06/19 00:20:43;;;;;;;28.15;3.45;;;14.00;99.90;;;;;;5074072;28;20420;-78
2022/06/19 00:23:09;;;;;;;26.60;3.42;;;14.00;99.90;;;;;;5075741;28;20502;-74
2022/06/19 00:25:35;;;;;;;26.58;2.80;;;14.00;99.90;;;;;;5074171;28;20044;-74
2022/06/19 00:28:02;;;;;;;28.60;2.72;;;14.00;99.90;;;;;;5075307;28;20109;-76
2022/06/19 00:30:28;;;;;;;25.48;2.42;;;14.10;99.90;;;;;;5075416;28;20040;-79
2022/06/19 00:32:54;;;;;;;35.03;3.55;;;14.10;99.90;;;;;;5074426;28;20066;-76
2022/06/19 00:35:20;;;;;;;23.50;2.90;;;14.00;99.90;;;;;;5075236;28;20094;-74
2022/06/19 00:37:46;;;;;;;35.10;3.92;;;14.00;99.90;;;;;;5074688;28;20484;-75
2022/06/19 00:40:13;;;;;;;24.23;2.55;;;14.00;99.90;;;;;;5073620;28;20075;-75
2022/06/19 00:42:39;;;;;;;31.58;2.88;;;14.00;99.90;;;;;;5073753;28;20052;-77
2022/06/19 00:45:05;;;;;;;24.23;2.40;;;14.00;99.90;;;;;;5075399;28;20122;-76
2022/06/19 00:47:35;;;;;;;23.73;2.93;;;14.00;99.90;;;;;;5075704;28;20056;-75
2022/06/19 00:50:22;;;;;;;33.63;2.70;;;14.00;99.90;;;;;;5074129;28;20314;-76
2022/06/19 00:52:48;;;;;;;30.67;2.53;;;14.00;99.90;;;;;;5073894;28;20052;-80
2022/06/19 00:55:21;;;;;;;36.92;2.85;;;14.10;99.90;;;;;;5075380;28;20048;-77
2022/06/19 00:57:57;;;;;;;25.48;2.50;;;14.00;99.90;;;;;;5073611;28;20044;-76
2022/06/19 01:00:26;;;;;;;31.67;3.20;;;14.10;99.90;;;;;;5074574;28;20071;-75
2022/06/19 01:03:25;;;;;;;28.65;2.63;;;14.00;99.90;;;;;;5073977;28;20312;-75
2022/06/19 01:05:52;;;;;;;26.00;2.15;;;14.10;99.90;;;;;;5074838;28;20377;-75
2022/06/19 01:08:17;;;;;;;;;;;14.10;99.90;;;;;;5075096;28;20127;-77
2022/06/19 01:10:47;;;;;;;27.53;2.60;;;14.10;99.90;;;;;;5074350;28;19978;-78
2022/06/19 01:13:16;;;;;;;31.65;3.17;;;14.10;99.90;;;;;;5074965;28;20084;-75
2022/06/19 01:15:42;;;;;;;25.77;2.85;;;14.00;99.90;;;;;;5073757;28;20087;-77
2022/06/19 01:18:10;;;;;;;28.45;2.65;;;14.00;99.90;;;;;;5074438;28;20377;-76
2022/06/19 01:20:37;;;;;;;24.33;2.95;;;14.10;99.90;;;;;;5074334;28;20125;-76
2022/06/19 01:23:18;;;;;;;23.20;2.33;;;14.10;99.90;;;;;;5073984;28;20381;-77
2022/06/19 01:25:44;;;;;;;32.10;3.70;;;14.10;99.90;;;;;;5074171;28;20045;-77
2022/06/19 01:31:06;;;;;;;24.67;2.00;;;14.10;99.90;;;;;;5072903;28;20797;-74
2022/06/19 01:33:38;;;;;;;23.48;2.83;;;14.20;99.90;;;;;;5073934;28;20049;-78
2022/06/19 01:36:05;;;;;;;19.52;2.05;;;14.30;99.90;;;;;;5073928;28;20132;-75
2022/06/19 01:38:32;;;;;;;;;;;14.40;99.90;;;;;;5074466;28;20052;-78
2022/06/19 01:41:06;;;;;;;23.10;1.83;;;14.30;99.90;;;;;;5072030;28;20292;-76
2022/06/19 01:43:33;;;;;;;21.67;1.70;;;14.40;99.90;;;;;;5073928;28;20072;-78
2022/06/19 01:46:00;;;;;;;;;;;14.40;99.90;;;;;;5074190;28;20040;-77
2022/06/19 01:48:28;;;;;;;;;;;14.40;99.90;;;;;;5073104;28;20397;-80
2022/06/19 01:50:56;;;;;;;16.45;1.70;;;14.50;99.90;;;;;;5073876;28;19958;-76
2022/06/19 01:53:27;;;;;;;22.77;1.55;;;14.50;99.90;;;;;;5072558;28;20096;-74
2022/06/19 01:55:53;;;;;;;23.95;2.50;;;14.50;99.90;;;;;;5073438;28;20484;-76
2022/06/19 01:58:24;;;;;;;16.83;1.40;;;14.50;99.90;;;;;;5073021;28;20060;-77
2022/06/19 02:00:50;;;;;;;13.45;1.30;;;14.40;99.90;;;;;;5074714;28;20420;-77
2022/06/19 02:03:47;;;;;;;19.23;2.22;;;14.40;99.90;;;;;;5074131;28;20379;-77
2022/06/19 02:06:18;;;;;;;18.98;0.95;;;14.40;99.90;;;;;;5073760;28;20073;-75
2022/06/19 02:08:45;;;;;;;15.85;1.42;;;14.50;99.90;;;;;;5056191;28;20056;-75
2022/06/19 02:11:11;;;;;;;19.47;1.90;;;14.50;99.90;;;;;;5072204;28;20047;-76
2022/06/19 02:13:39;;;;;;;13.48;1.55;;;14.50;99.90;;;;;;5071984;28;20070;-75
2022/06/19 02:16:08;;;;;;;19.88;1.20;;;14.50;99.90;;;;;;5072062;28;20052;-76
2022/06/19 02:18:38;;;;;;;15.25;1.42;;;14.50;99.90;;;;;;5055978;28;20055;-76
2022/06/19 02:21:11;;;;;;;10.25;0.80;;;14.50;99.90;;;;;;5073361;28;20052;-74
2022/06/19 02:23:38;;;;;;;13.15;1.23;;;14.50;99.90;;;;;;5072327;28;20048;-76
2022/06/19 02:26:09;;;;;;;11.27;0.95;;;14.50;99.90;;;;;;5072075;28;20142;-74
2022/06/19 02:28:39;;;;;;;14.75;1.05;;;14.50;99.70;;;;;;5071566;28;20084;-75
2022/06/19 02:31:08;;;;;;;11.52;1.00;;;14.50;99.70;;;;;;5072588;28;20395;-75
2022/06/19 02:33:41;;;;;;;18.20;1.95;;;14.50;99.90;;;;;;5072649;28;20041;-75
2022/06/19 02:36:38;;;;;;;13.45;0.82;;;14.50;99.90;;;;;;5072494;28;20369;-73
2022/06/19 02:39:39;;;;;;;11.93;0.80;;;14.50;99.90;;;;;;5073329;28;20127;-75
2022/06/19 02:42:19;;;;;;;15.55;1.23;;;14.60;99.90;;;;;;5072448;28;20118;-77
2022/06/19 02:44:52;;;;;;;15.10;1.00;;;14.60;99.90;;;;;;5073089;28;20133;-75
2022/06/19 02:47:18;;;;;;;13.35;0.85;;;14.60;99.90;;;;;;5071678;28;20083;-74
2022/06/19 02:49:44;;;;;;;17.38;1.33;;;14.70;99.90;;;;;;5105891;28;20126;-76
2022/06/19 02:52:12;;;;;;;17.92;2.17;;;14.60;99.90;;;;;;5073070;28;20419;-79
2022/06/19 02:54:38;;;;;;;25.73;2.67;;;14.50;99.90;;;;;;5072853;28;20052;-76
2022/06/19 02:57:05;;;;;;;11.60;1.33;;;14.50;99.90;;;;;;5072475;28;20497;-73
2022/06/19 02:59:32;;;;;;;23.30;2.70;;;14.50;99.90;;;;;;5072734;28;20132;-74
2022/06/19 03:01:58;;;;;;;17.25;2.45;;;14.40;99.90;;;;;;5072404;28;20048;-72
2022/06/19 03:04:30;;;;;;;19.55;1.50;;;14.50;99.90;;;;;;5071534;28;20048;-79
2022/06/19 03:06:56;;;;;;;21.35;1.60;;;14.50;99.90;;;;;;5072892;28;20083;-78
2022/06/19 03:09:22;;;;;;;26.15;1.95;;;14.40;99.90;;;;;;5073130;28;20091;-75
2022/06/19 03:11:48;;;;;;;28.85;2.92;;;14.40;99.90;;;;;;5072482;28;20059;-79
2022/06/19 03:14:14;;;;;;;21.77;1.33;;;14.40;99.90;;;;;;5055132;28;20186;-74
2022/06/19 03:16:40;;;;;;;17.20;1.33;;;14.40;99.90;;;;;;5070778;28;20131;-78
2022/06/19 03:19:06;;;;;;;16.23;2.15;;;14.40;99.90;;;;;;5072545;28;20159;-77
2022/06/19 03:21:32;;;;;;;25.20;1.88;;;14.40;99.90;;;;;;5072717;28;20048;-79
2022/06/19 03:23:57;;;;;;;22.58;1.90;;;14.50;99.90;;;;;;5072965;28;20048;-76
2022/06/19 03:26:24;;;;;;;20.77;2.10;;;14.60;99.90;;;;;;5072635;28;20044;-76
2022/06/19 03:28:49;;;;;;;20.20;2.33;;;14.60;99.90;;;;;;5073725;28;20058;-76
2022/06/19 03:31:21;;;;;;;18.23;2.47;;;14.60;99.90;;;;;;5056202;28;20361;-76
2022/06/19 03:33:47;;;;;;;16.98;2.05;;;14.60;99.90;;;;;;5085641;28;20054;-77
2022/06/19 03:36:13;;;;;;;18.23;1.38;;;14.60;99.90;;;;;;5092340;28;20079;-76
2022/06/19 03:38:39;;;;;;;17.73;1.55;;;14.60;99.90;;;;;;5091512;28;20044;-75
2022/06/19 03:41:05;;;;;;;32.35;1.92;;;14.60;99.90;;;;;;5091508;28;20052;-78
2022/06/19 03:43:33;;;;;;;24.00;1.90;;;14.40;99.90;;;;;;5084906;28;20435;-76
2022/06/19 03:46:12;;;;;;;19.17;1.95;;;14.40;99.90;;;;;;5076581;28;20083;-76
2022/06/19 03:48:42;;;;;;;20.50;2.28;;;14.40;99.90;;;;;;5077220;28;20370;-79
2022/06/19 03:51:08;;;;;;;12.60;1.58;;;14.20;99.90;;;;;;5077096;28;20092;-76
2022/06/19 03:53:35;;;;;;;25.90;2.35;;;14.30;99.90;;;;;;5073197;28;20090;-75
2022/06/19 03:56:01;;;;;;;22.27;1.38;;;14.30;99.90;;;;;;5072801;28;20053;-77
2022/06/19 03:58:45;;;;;;;19.98;1.25;;;14.40;99.90;;;;;;5072320;28;20040;-76
2022/06/19 04:01:23;;;;;;;25.17;1.80;;;14.40;99.90;;;;;;5070950;28;20394;-75
2022/06/19 04:03:51;;;;;;;17.20;1.30;;;14.40;99.90;;;;;;5071072;28;20427;-75
2022/06/19 04:06:19;;;;;;;21.73;1.50;;;14.50;99.90;;;;;;5072354;28;20044;-74
2022/06/19 04:08:46;;;;;;;21.38;2.35;;;14.50;99.90;;;;;;5071770;28;20084;-78
2022/06/19 04:11:12;;;;;;;16.00;1.42;;;14.30;99.90;;;;;;5070958;28;20067;-75
2022/06/19 04:13:38;;;;;;;23.75;1.73;;;14.30;99.90;;;;;;5054481;28;20057;-76
2022/06/19 04:16:10;;;;;;;22.13;1.60;;;14.40;99.90;;;;;;5071351;28;20140;-76
2022/06/19 04:18:36;;;;;;;16.95;1.38;;;14.50;99.90;;;;;;5070872;28;20044;-74
2022/06/19 04:21:03;;;;;;;15.30;1.10;;;14.60;99.90;;;;;;5070379;28;20056;-74
2022/06/19 04:23:29;;;;;;;20.70;2.22;;;14.60;99.90;;;;;;5071210;28;20135;-76
2022/06/19 04:25:55;;;;;;;24.45;1.95;;;14.70;99.90;;;;;;5070479;28;20091;-78
2022/06/19 04:28:25;;;;;;;18.30;1.40;;;14.70;99.90;;;;;;5074612;28;20044;-76
2022/06/19 04:30:52;;;;;;;23.55;1.50;;;14.70;99.90;;;;;;5075060;28;20041;-75
2022/06/19 04:33:19;;;;;;;12.68;1.75;;;14.70;99.90;;;;;;5075137;28;20088;-76
2022/06/19 04:35:46;;;;;;;20.15;1.98;;;14.70;99.90;;;;;;5074987;28;20060;-78
2022/06/19 04:38:11;;;;;;;;;;;14.80;99.90;;;;;;5074059;28;20052;-75
2022/06/19 04:40:38;;;;;;;16.13;1.50;;;14.80;99.90;;;;;;5073597;28;19981;-75
2022/06/19 04:43:04;;;;;;;16.40;2.37;;;14.70;99.90;;;;;;5057339;28;20465;-75
2022/06/19 04:45:31;;;;;;;12.23;1.55;;;14.70;99.90;;;;;;5075055;28;20139;-76
2022/06/19 04:47:56;;;;;;;15.88;1.73;;;14.80;99.90;;;;;;5075020;28;20048;-75
2022/06/19 04:50:22;;;;;;;18.33;1.20;;;14.80;99.90;;;;;;5074263;28;20443;-78
2022/06/19 04:52:51;;;;;;;15.18;1.05;;;14.80;99.90;;;;;;5075443;28;20494;-77
2022/06/19 04:55:18;;;;;;;14.18;1.10;;;14.80;99.90;;;;;;5074753;28;20131;-76
2022/06/19 04:57:44;;;;;;;12.82;0.82;;;14.80;99.90;;;;;;5073434;28;20063;-76
2022/06/19 05:00:15;;;;;;;14.32;0.60;;;14.90;99.70;;;;;;5074653;28;20091;-76
2022/06/19 05:02:41;;;;;;;11.15;0.73;;;15.10;98.00;;;;;;5074545;28;20059;-77
2022/06/19 05:05:13;;;;;;;11.83;1.43;;;15.10;96.90;;;;;;5074633;28;20045;-76
2022/06/19 05:07:39;;;;;;;13.10;1.00;;;15.20;97.20;;;;;;5074617;28;20059;-76
2022/06/19 05:10:05;;;;;;;13.57;0.90;;;15.20;97.10;;;;;;5074923;28;20040;-76
2022/06/19 05:12:31;;;;;;;15.57;1.40;;;15.20;95.70;;;;;;5073141;28;20063;-76
2022/06/19 05:14:56;;;;;;;18.77;1.10;;;15.30;96.10;;;;;;5074715;28;20044;-76
2022/06/19 05:17:22;;;;;;;21.25;0.93;;;15.30;96.70;;;;;;5057215;28;20417;-76
2022/06/19 05:19:48;;;;;;;14.32;1.38;;;15.30;96.50;;;;;;5074957;28;20127;-78
2022/06/19 05:22:13;;;;;;;13.43;1.00;;;15.30;95.90;;;;;;5074187;28;20055;-76
2022/06/19 05:24:39;;;;;;;16.48;1.30;;;15.20;96.00;;;;;;5073471;28;20059;-74
2022/06/19 05:27:07;;;;;;;13.13;1.00;;;15.20;95.50;;;;;;5074003;28;20044;-74
2022/06/19 05:29:32;;;;;;;18.33;1.10;;;15.30;95.40;;;;;;5074622;28;20056;-75
2022/06/19 05:31:58;;;;;;;12.18;1.00;;;15.10;94.50;;;;;;5056475;28;20048;-75
2022/06/19 05:34:24;;;;;;;15.95;0.98;;;15.10;95.10;;;;;;5056981;28;20040;-75
2022/06/19 05:36:50;;;;;;;15.35;1.35;;;15.20;94.80;;;;;;5074311;28;20149;-78
2022/06/19 05:39:16;;;;;;;20.92;1.27;;;14.90;95.30;;;;;;5073638;28;20185;-75
2022/06/19 05:41:42;;;;;;;15.27;2.13;;;14.60;97.00;;;;;;5074203;28;20052;-76
2022/06/19 05:44:11;;;;;;;22.75;2.15;;;14.60;96.90;;;;;;5073845;28;20049;-77
2022/06/19 05:46:36;;;;;;;16.75;1.48;;;14.60;98.40;;;;;;5072738;28;20048;-76
2022/06/19 05:49:02;;;;;;;24.88;1.35;;;14.70;98.60;;;;;;5073719;28;20052;-75
2022/06/19 05:51:28;;;;;;;13.60;1.10;;;14.70;98.50;;;;;;5073638;28;20127;-75
2022/06/19 05:53:56;;;;;;;11.73;1.20;;;14.80;98.40;;;;;;5073587;28;20114;-76
2022/06/19 05:56:22;;;;;;;18.63;1.27;;;15.00;98.10;;;;;;5073365;28;20550;-76
2022/06/19 05:58:48;;;;;;;16.50;1.27;;;15.10;97.60;;;;;;5073489;28;20053;-74
2022/06/19 06:01:16;;;;;;;16.35;1.10;;;15.20;97.50;;;;;;5072118;28;20044;-75
2022/06/19 06:03:42;;;;;;;16.52;2.05;;;15.20;97.40;;;;;;5073383;28;20074;-76
2022/06/19 06:06:13;;;;;;;10.07;1.27;;;15.30;97.70;;;;;;5089255;28;20075;-75
2022/06/19 06:08:39;;;;;;;14.25;1.70;;;15.30;97.80;;;;;;5072101;28;20324;-76
2022/06/19 06:11:05;;;;;;;18.63;1.77;;;15.10;99.00;;;;;;5072985;28;20048;-75
2022/06/19 06:13:32;;;;;;;21.85;1.65;;;14.70;99.90;;;;;;5071874;28;20127;-75
2022/06/19 06:15:58;;;;;;;17.10;1.83;;;14.80;99.90;;;;;;5072709;28;20045;-73
2022/06/19 06:18:24;;;;;;;21.30;1.70;;;14.80;99.90;;;;;;5056160;28;20102;-73
2022/06/19 06:21:05;;;;;;;21.30;1.75;;;14.60;99.90;;;;;;5073000;28;20052;-74
2022/06/19 06:23:32;;;;;;;20.67;1.63;;;14.50;99.90;;;;;;5073772;28;20053;-74
2022/06/19 06:26:08;;;;;;;17.35;1.67;;;14.60;99.90;;;;;;5072229;28;20441;-73
2022/06/19 06:28:36;;;;;;;20.50;1.70;;;14.50;99.90;;;;;;5073251;28;20056;-74
2022/06/19 06:31:02;;;;;;;16.85;1.65;;;14.40;99.90;;;;;;5072722;28;20127;-73
2022/06/19 06:33:28;;;;;;;14.65;1.05;;;14.30;99.90;;;;;;5071820;28;20479;-74
2022/06/19 06:35:55;;;;;;;22.38;2.10;;;14.40;99.90;;;;;;5054388;28;20052;-76
2022/06/19 06:38:22;;;;;;;17.92;1.75;;;14.20;99.90;;;;;;5072707;28;20181;-74
2022/06/19 06:40:48;;;;;;;24.70;2.28;;;14.40;99.90;;;;;;5072111;28;20056;-77
2022/06/19 06:43:14;;;;;;;20.60;1.80;;;14.20;99.90;;;;;;5073189;28;20128;-75
2022/06/19 06:45:40;;;;;;;26.13;2.45;;;14.20;99.90;;;;;;5072686;28;20314;-73
2022/06/19 06:48:06;;;;;;;17.27;2.17;;;14.00;99.90;;;;;;5072652;28;20064;-74
2022/06/19 06:50:32;;;;;;;15.02;1.50;;;14.20;99.90;;;;;;5072641;28;20358;-73
2022/06/19 06:52:58;;;;;;;15.73;2.28;;;14.20;99.90;;;;;;5072403;28;20044;-76
2022/06/19 06:55:23;;;;;;;23.58;1.75;;;14.10;99.90;;;;;;5072152;28;20055;-74
2022/06/19 06:57:49;;;;;;;14.73;1.90;;;14.20;99.90;;;;;;5072257;28;20047;-75
2022/06/19 07:00:21;;;;;;;23.50;2.10;;;14.10;99.90;;;;;;5071111;28;20140;-74
2022/06/19 07:02:47;;;;;;;17.48;1.90;;;13.90;99.90;;;;;;5071650;28;20060;-74
2022/06/19 07:05:14;;;;;;;19.03;1.80;;;14.10;99.90;;;;;;5072447;28;20040;-73
2022/06/19 07:07:40;;;;;;;17.08;1.67;;;14.20;99.90;;;;;;5073133;28;20080;-74
2022/06/19 07:10:06;;;;;;;19.65;2.50;;;14.20;99.90;;;;;;5072522;28;20527;-74
2022/06/19 07:12:32;;;;;;;21.20;1.77;;;14.30;99.90;;;;;;5072430;28;20043;-75
2022/06/19 07:14:57;;;;;;;18.70;2.05;;;14.40;99.90;;;;;;5072545;28;20044;-77
2022/06/19 07:17:23;;;;;;;15.45;1.65;;;14.50;99.90;;;;;;5070773;28;20485;-74
2022/06/19 07:19:50;;;;;;;14.45;2.00;;;14.50;99.90;;;;;;5072009;28;20091;-76
2022/06/19 07:22:18;;;;;;;21.17;2.63;;;14.50;99.90;;;;;;5070935;28;20123;-76
2022/06/19 07:24:46;;;;;;;19.92;2.05;;;14.60;99.90;;;;;;5072898;28;20349;-74
2022/06/19 07:27:12;;;;;;;26.05;2.60;;;14.70;99.90;;;;;;5072165;28;20094;-73
2022/06/19 07:29:43;;;;;;;17.27;1.85;;;14.70;99.90;;;;;;5071207;28;20081;-74
2022/06/19 07:32:09;;;;;;;19.05;2.10;;;14.80;99.90;;;;;;5071102;28;20086;-76
2022/06/19 07:34:35;;;;;;;19.20;1.95;;;14.80;99.90;;;;;;5072153;28;20168;-74
2022/06/19 07:37:01;;;;;;;20.42;2.35;;;14.70;99.90;;;;;;5071946;28;20549;-76
2022/06/19 07:39:27;;;;;;;18.73;2.13;;;14.70;99.90;;;;;;5072673;28;20047;-75
2022/06/19 07:41:53;;;;;;;25.65;2.47;;;14.80;99.90;;;;;;5072154;28;20388;-73
2022/06/19 07:44:19;;;;;;;24.67;2.20;;;14.50;99.90;;;;;;5072209;28;20051;-76
2022/06/19 07:52:13;;;;;;;15.35;1.63;;;14.50;99.90;;;;;;5072334;28;20456;-74
2022/06/19 07:54:39;;;;;;;19.90;1.98;;;14.60;99.90;;;;;;5054040;28;20056;-74
2022/06/19 07:57:05;;;;;;;17.08;2.33;;;14.70;99.90;;;;;;5072324;28;20453;-77
2022/06/19 07:59:30;;;;;;;14.80;1.30;;;14.80;99.90;;;;;;5071104;28;20099;-73
2022/06/19 08:01:56;;;;;;;17.77;1.70;;;14.80;99.90;;;;;;5072660;28;20048;-74
2022/06/19 08:04:23;;;;;;;12.65;1.40;;;14.90;99.90;;;;;;5076108;28;20053;-74
2022/06/19 08:06:52;;;;;;;18.80;1.60;;;15.00;99.90;;;;;;5074971;28;20364;-73
2022/06/19 08:09:18;;;;;;;17.42;2.03;;;14.70;99.90;;;;;;5075284;28;20048;-73
2022/06/19 08:11:43;;;;;;;19.05;1.67;;;14.80;99.90;;;;;;5074205;28;20070;-73
2022/06/19 08:14:09;;;;;;;15.20;1.75;;;14.90;99.90;;;;;;5075111;28;20462;-74
2022/06/19 08:16:35;;;;;;;18.27;1.50;;;14.80;99.90;;;;;;5075149;28;20073;-73
2022/06/19 08:19:01;;;;;;;17.48;1.73;;;14.80;99.90;;;;;;5057634;28;20052;-75
2022/06/19 08:21:27;;;;;;;17.70;1.50;;;15.00;99.90;;;;;;5073778;28;20119;-74
2022/06/19 08:23:53;;;;;;;20.13;1.83;;;15.10;99.90;;;;;;5073845;28;20051;-75
2022/06/19 08:26:19;;;;;;;24.02;2.17;;;15.20;99.90;;;;;;5075041;28;20353;-75
2022/06/19 08:31:25;;;;;;;21.10;2.13;;;15.40;99.90;;;;;;5075447;28;20052;-73
2022/06/19 08:33:51;;;;;;;14.43;1.58;;;15.40;99.90;;;;;;5075095;28;20045;-73
2022/06/19 08:36:18;;;;;;;19.50;2.50;;;15.50;99.90;;;;;;5074995;28;20049;-74
2022/06/19 08:38:51;;;;;;;23.63;2.40;;;15.40;99.90;;;;;;5073989;28;20431;-73
2022/06/19 08:41:38;;;;;;;24.13;2.30;;;15.50;99.90;;;;;;5075469;28;20072;-73
2022/06/19 08:44:16;;;;;;;19.55;2.35;;;15.40;99.90;;;;;;5074756;28;20094;-73
2022/06/19 08:46:57;;;;;;;19.15;2.47;;;15.30;99.90;;;;;;5074816;28;20036;-73
2022/06/19 08:50:04;;;;;;;18.08;2.03;;;15.40;99.90;;;;;;5073723;28;20140;-74
2022/06/19 08:52:53;;;;;;;12.93;1.60;;;15.60;99.90;;;;;;5041328;28;20084;-74
2022/06/19 08:55:22;;;;;;;12.18;1.33;;;15.50;99.90;;;;;;5073146;28;20472;-75
2022/06/19 08:58:05;;;;;;;17.80;1.52;;;15.60;99.90;;;;;;5074949;28;20209;-74
2022/06/19 09:00:49;;;;;;;25.60;2.10;;;15.70;99.90;;;;;;5073265;28;20067;-74
2022/06/19 09:06:36;;;;;;;;;;;15.70;99.90;;;;;;5074397;28;20396;-76
2022/06/19 09:09:27;;;;;;;15.63;2.50;;;15.80;99.90;;;;;;5074199;28;20347;-74
2022/06/19 09:12:19;;;;;;;20.98;1.88;;;15.90;99.90;;;;;;5074418;28;20570;-76
2022/06/19 09:14:51;;;;;;;17.50;2.30;;;15.70;99.90;;;;;;5062115;28;20345;-75
2022/06/19 09:17:32;;;;;;;15.18;2.40;;;15.70;99.90;;;;;;5074135;28;20475;-76
2022/06/19 09:20:16;;;;;;;18.08;2.95;;;15.60;99.90;;;;;;5073294;28;20549;-73
2022/06/19 09:23:06;;;;;;;25.45;2.38;;;16.00;99.90;;;;;;5072963;28;20388;-78
2022/06/19 09:25:44;;;;;;;24.35;2.50;;;16.10;99.90;;;;;;5075043;28;20053;-75
2022/06/19 09:28:19;;;;;;;22.27;2.95;;;16.10;99.90;;;;;;5057237;28;20081;-75
2022/06/19 09:30:59;;;;;;;22.58;2.15;;;15.40;99.90;;;;;;5073138;28;20128;-77
2022/06/19 09:33:49;;;;;;;17.95;1.63;;;15.90;99.90;;;;;;5074674;28;20052;-74
2022/06/19 09:36:17;;;;;;;27.58;2.55;;;15.80;99.90;;;;;;5056730;28;20554;-78
2022/06/19 09:39:09;;;;;;;22.30;2.78;;;15.50;99.90;;;;;;5074165;28;20045;-76
2022/06/19 09:41:46;;;;;;;18.75;2.55;;;15.70;99.90;;;;;;5074293;28;20499;-75
2022/06/19 09:45:00;;;;;;;24.10;3.40;;;15.80;99.90;;;;;;5072270;28;20048;-75
2022/06/19 09:47:35;;;;;;;14.18;2.88;;;15.80;99.90;;;;;;5068452;28;20488;-76
2022/06/19 09:50:15;;;;;;;22.58;2.83;;;15.90;99.90;;;;;;5074641;28;20342;-76
2022/06/19 09:53:04;;;;;;;20.63;2.88;;;16.20;99.90;;;;;;5073532;28;20087;-76
2022/06/19 09:55:42;;;;;;;22.52;2.67;;;16.20;99.90;;;;;;5073894;28;20400;-74
2022/06/19 09:58:16;;;;;;;17.38;2.50;;;16.20;99.90;;;;;;5074152;28;20511;-73
2022/06/19 10:00:45;;;;;;;16.70;2.75;;;16.20;99.90;;;;;;5056084;28;20075;-78
2022/06/19 10:03:17;;;;;;;16.48;2.13;;;15.70;99.90;;;;;;5073610;28;20044;-77
2022/06/19 10:06:17;;;;;;;21.08;2.53;;;15.60;99.90;;;;;;5073963;28;20044;-77
2022/06/19 10:08:50;;;;;;;17.65;1.98;;;15.70;99.90;;;;;;5061403;28;20048;-77
2022/06/19 10:11:29;;;;;;;20.30;2.63;;;16.10;99.90;;;;;;5073583;28;20114;-75
2022/06/19 10:13:57;;;;;;;16.55;2.45;;;16.50;99.90;;;;;;5072280;28;20044;-75
2022/06/19 10:16:44;;;;;;;14.02;1.55;;;16.60;99.90;;;;;;5074822;28;20045;-80
2022/06/19 10:19:21;;;;;;;12.10;2.78;;;16.60;99.90;;;;;;5075071;28;20147;-75
2022/06/19 10:22:16;;;;;;;21.45;2.60;;;16.50;99.90;;;;;;5073537;28;20052;-76
2022/06/19 10:25:04;;;;;;;21.55;2.53;;;16.00;99.90;;;;;;5055522;28;20056;-74
2022/06/19 10:27:55;;;;;;;15.15;3.45;;;15.70;99.90;;;;;;5074082;28;20121;-78
2022/06/19 10:30:35;;;;;;;12.25;1.95;;;15.80;99.90;;;;;;5073461;28;20072;-76
2022/06/19 10:33:10;;;;;;;14.35;2.17;;;15.80;99.90;;;;;;5056283;28;20079;-76
2022/06/19 10:35:56;;;;;;;13.32;2.80;;;16.00;99.90;;;;;;5074014;28;20078;-75
2022/06/19 10:38:45;;;;;;;16.98;1.88;;;16.20;99.90;;;;;;5073160;28;20063;-77
2022/06/19 10:44:43;;;;;;;12.70;1.60;;;16.40;99.90;;;;;;5090466;28;20131;-77
2022/06/19 10:47:30;;;;;;;14.02;1.60;;;16.70;99.90;;;;;;5092541;28;20204;-74
2022/06/19 10:50:13;;;;;;;12.20;1.90;;;16.90;99.90;;;;;;5081225;28;20056;-74
2022/06/19 10:53:16;;;;;;;16.63;2.08;;;16.70;99.90;;;;;;5075077;28;20209;-75
2022/06/19 10:56:00;;;;;;;11.88;2.00;;;16.20;99.90;;;;;;5076507;28;20051;-75
2022/06/19 10:58:29;;;;;;;14.73;2.28;;;15.90;99.90;;;;;;5075157;28;20131;-75
2022/06/19 11:00:59;;;;;;;13.52;2.80;;;16.10;99.90;;;;;;5074492;28;20098;-74
2022/06/19 11:07:00;;;;;;;14.60;2.03;;;16.50;99.90;;;;;;5072539;28;20052;-75
2022/06/19 11:09:35;;;;;;;12.10;2.20;;;16.30;99.90;;;;;;5074998;28;20188;-75
2022/06/19 11:12:11;;;;;;;16.75;2.40;;;16.20;99.90;;;;;;5074604;28;20047;-73
2022/06/19 11:14:49;;;;;;;12.43;2.15;;;16.20;99.90;;;;;;5073070;28;20058;-74
2022/06/19 11:17:28;;;;;;;14.73;2.53;;;16.20;99.90;;;;;;5073219;28;20098;-76
2022/06/19 11:19:54;;;;;;;9.90;2.25;;;16.40;99.90;;;;;;5055774;28;20052;-76
2022/06/19 11:22:30;;;;;;;21.50;2.72;;;16.60;99.90;;;;;;5071386;28;20128;-77
2022/06/19 11:24:58;;;;;;;16.83;2.63;;;16.60;99.90;;;;;;5072844;28;20051;-74
2022/06/19 11:27:26;;;;;;;17.65;2.80;;;16.50;99.90;;;;;;5071183;28;20326;-77
2022/06/19 11:29:54;;;;;;;15.77;2.72;;;16.40;99.90;;;;;;5073208;28;20102;-75
2022/06/19 11:32:26;;;;;;;12.00;1.88;;;16.30;99.90;;;;;;5072607;28;20040;-75
2022/06/19 11:35:18;;;;;;;15.15;1.75;;;16.20;99.90;;;;;;5071799;28;20048;-76
2022/06/19 11:37:52;;;;;;;16.90;2.10;;;16.00;99.90;;;;;;5071447;28;20057;-76
2022/06/19 11:40:30;;;;;;;15.70;2.30;;;16.10;99.90;;;;;;5075463;28;20473;-75
2022/06/19 11:42:59;;;;;;;13.27;2.58;;;16.20;99.90;;;;;;5075790;28;20370;-75
2022/06/19 11:45:35;;;;;;;12.77;1.83;;;16.40;99.90;;;;;;5076514;28;20408;-75
2022/06/19 11:48:01;;;;;;;;;;;16.60;99.90;;;;;;5077207;28;20136;-76
2022/06/19 11:50:33;;;;;;;16.80;2.20;;;16.50;99.90;;;;;;5075600;28;19963;-79
2022/06/19 11:53:11;;;;;;;10.00;1.33;;;16.40;99.90;;;;;;5075124;28;20083;-76
2022/06/19 11:55:39;;;;;;;8.48;1.63;;;16.60;99.90;;;;;;5076258;28;20048;-76
2022/06/19 11:58:31;;;;;;;13.68;1.70;;;16.60;99.90;;;;;;5076174;28;20044;-75
2022/06/19 12:01:06;;;;;;;16.65;2.20;;;16.70;99.90;;;;;;5076097;28;20143;-79
2022/06/19 12:03:43;;;;;;;9.65;2.03;;;16.50;99.90;;;;;;5076698;28;20115;-74
2022/06/19 12:06:11;;;;;;;16.80;2.45;;;16.30;99.90;;;;;;5075202;28;20052;-75
2022/06/19 12:09:00;;;;;;;19.10;2.10;;;16.30;99.90;;;;;;5075961;28;20055;-75
2022/06/19 12:11:55;;;;;;;9.98;1.73;;;16.20;99.90;;;;;;5058102;28;20052;-75
2022/06/19 12:14:37;;;;;;;14.45;1.60;;;16.20;99.90;;;;;;5075021;28;20045;-79
2022/06/19 12:17:18;;;;;;;16.42;1.92;;;16.00;99.90;;;;;;5076736;28;20437;-76
2022/06/19 12:20:13;;;;;;;16.77;1.67;;;16.20;99.90;;;;;;5075612;28;20056;-78
2022/06/19 12:23:09;;;;;;;14.70;1.65;;;16.20;99.90;;;;;;5070382;28;20091;-75
2022/06/19 12:25:44;;;;;;;17.57;2.40;;;16.40;99.90;;;;;;5076408;28;20059;-77
2022/06/19 12:28:38;;;;;;;14.65;1.50;;;16.50;99.90;;;;;;5074176;28;20057;-76
2022/06/19 12:31:21;;;;;;;9.20;1.25;;;16.50;99.90;;;;;;5076267;28;20428;-76
2022/06/19 12:33:55;;;;;;;11.77;1.90;;;16.90;99.90;;;;;;5075509;28;20048;-77
2022/06/19 12:36:35;;;;;;;8.95;1.50;;;17.00;99.90;;;;;;5075586;28;20044;-75
2022/06/19 12:39:22;;;;;;;9.73;1.38;;;17.20;99.50;;;;;;5074638;28;20160;-77
2022/06/19 12:42:09;;;;;;;10.85;1.05;;;17.20;99.30;;;;;;5074380;28;20044;-76
2022/06/19 12:45:04;;;;;;;12.43;1.35;;;17.50;98.60;;;;;;5075295;28;20590;-75
2022/06/19 12:47:48;;;;;;;9.70;0.98;;;17.40;98.70;;;;;;5074143;28;20476;-77
2022/06/19 12:50:32;;;;;;;6.97;1.17;;;17.50;98.10;;;;;;5075935;28;20115;-76
2022/06/19 12:53:07;;;;;;;13.60;1.25;;;17.80;98.20;;;;;;5074355;28;20048;-74
2022/06/19 12:55:36;;;;;;;10.63;1.30;;;17.50;97.70;;;;;;5075498;28;20047;-79
2022/06/19 12:58:25;;;;;;;10.70;1.25;;;17.40;97.70;;;;;;5075271;28;20428;-76
2022/06/19 13:01:04;;;;;;;10.30;0.80;;;17.40;98.00;;;;;;5074028;28;20041;-76
2022/06/19 13:03:44;;;;;;;11.48;1.42;;;17.70;97.20;;;;;;5075659;28;20044;-75
2022/06/19 13:06:20;;;;;;;14.20;1.10;;;17.80;96.70;;;;;;5074300;28;20095;-75
2022/06/19 13:08:53;;;;;;;;;;;17.90;97.00;;;;;;5076001;28;20377;-75
2022/06/19 13:11:43;;;;;;;11.77;1.10;;;18.00;97.00;;;;;;5074936;28;19971;-77
2022/06/19 13:14:41;;;;;;;13.18;1.25;;;17.90;96.50;;;;;;5057137;28;20048;-76
2022/06/19 13:17:16;;;;;;;6.43;1.02;;;18.00;96.60;;;;;;5073700;28;20055;-76
2022/06/19 13:19:54;;;;;;;9.77;1.20;;;18.20;95.50;;;;;;5074213;28;20049;-75
2022/06/19 13:22:32;;;;;;;9.90;1.20;;;18.30;95.60;;;;;;5075161;28;20389;-78
2022/06/19 13:25:17;;;;;;;12.27;1.90;;;18.50;95.70;;;;;;5073626;28;20084;-74
2022/06/19 13:27:58;;;;;;;8.70;1.10;;;18.70;94.50;;;;;;5073663;28;20052;-76